createdAt,value
2018-09-23T00:01:24.279Z,6.90
2018-09-23T00:03:52.725Z,5.77
2018-09-23T00:06:21.233Z,9.13
2018-09-23T00:08:49.826Z,6.63
2018-09-23T00:11:18.417Z,6.50
2018-09-23T00:13:46.893Z,6.73
2018-09-23T00:16:15.807Z,5.03
2018-09-23T00:18:44.190Z,7.43
2018-09-23T00:21:12.600Z,6.90
2018-09-23T00:23:41.221Z,10.27
2018-09-23T00:26:09.613Z,5.60
2018-09-23T00:28:38.426Z,6.83
2018-09-23T00:31:06.840Z,5.73
2018-09-23T00:33:35.437Z,8.00
2018-09-23T00:36:03.817Z,9.30
2018-09-23T00:38:32.386Z,9.50
2018-09-23T00:41:01.005Z,9.67
2018-09-23T00:43:29.732Z,7.80
2018-09-23T00:45:58.340Z,7.50
2018-09-23T00:48:26.847Z,8.43
2018-09-23T00:50:55.983Z,8.77
2018-09-23T00:53:24.397Z,7.63
2018-09-23T00:55:52.863Z,7.50
2018-09-23T00:58:21.471Z,8.47
2018-09-23T01:00:50.073Z,7.23
2018-09-23T01:03:19.626Z,8.20
2018-09-23T01:05:48.574Z,7.53
2018-09-23T01:08:17.143Z,10.60
2018-09-23T01:10:45.634Z,9.27
2018-09-23T01:13:14.239Z,12.10
2018-09-23T01:15:43.036Z,6.30
2018-09-23T01:18:11.431Z,10.20
2018-09-23T01:20:40.451Z,6.63
2018-09-23T01:23:08.871Z,8.03
2018-09-23T01:25:37.764Z,9.73
2018-09-23T01:28:06.586Z,9.03
2018-09-23T01:30:34.950Z,9.20
2018-09-23T01:33:04.044Z,10.00
2018-09-23T01:35:33.286Z,12.17
2018-09-23T01:38:01.993Z,11.17
2018-09-23T01:40:30.388Z,13.00
2018-09-23T01:42:59.300Z,13.67
2018-09-23T01:45:27.916Z,11.30
2018-09-23T01:47:56.328Z,9.37
2018-09-23T01:50:25.017Z,9.93
2018-09-23T01:52:53.750Z,8.37
2018-09-23T01:55:22.543Z,13.20
2018-09-23T01:57:51.218Z,11.33
2018-09-23T02:00:19.988Z,11.83
2018-09-23T02:02:48.386Z,12.13
2018-09-23T02:05:16.979Z,10.47
2018-09-23T02:07:46.835Z,13.20
2018-09-23T02:10:15.357Z,13.83
2018-09-23T02:12:43.855Z,8.87
2018-09-23T02:15:12.305Z,11.47
2018-09-23T02:17:40.737Z,14.73
2018-09-23T02:20:09.274Z,10.37
2018-09-23T02:22:38.641Z,12.73
2018-09-23T02:25:07.085Z,10.07
2018-09-23T02:27:35.545Z,10.40
2018-09-23T02:30:04.266Z,10.07
2018-09-23T02:32:32.850Z,11.40
2018-09-23T02:35:01.333Z,8.83
2018-09-23T02:37:29.846Z,12.13
2018-09-23T02:39:58.760Z,11.57
2018-09-23T02:42:27.435Z,13.87
2018-09-23T02:44:56.096Z,9.90
2018-09-23T02:47:24.941Z,9.90
2018-09-23T02:49:54.124Z,12.20
2018-09-23T02:52:22.673Z,9.93
2018-09-23T02:54:51.065Z,13.97
2018-09-23T02:57:19.467Z,11.70
2018-09-23T02:59:48.463Z,11.63
2018-09-23T03:02:16.854Z,10.60
2018-09-23T03:04:45.682Z,13.20
2018-09-23T03:07:14.683Z,11.90
2018-09-23T03:09:43.626Z,13.33
2018-09-23T03:12:12.216Z,13.00
2018-09-23T03:14:40.621Z,14.77
2018-09-23T03:17:09.479Z,14.20
2018-09-23T03:19:38.012Z,12.07
2018-09-23T19:04:18.847Z,4.40
2018-09-23T19:06:47.924Z,5.17
2018-09-23T19:09:16.961Z,5.73
2018-09-23T19:11:45.673Z,6.07
2018-09-23T19:14:15.052Z,2.13
2018-09-23T19:16:43.942Z,2.97
2018-09-23T19:19:13.465Z,3.27
2018-09-23T19:21:42.146Z,3.50
2018-09-23T19:24:11.309Z,1.80
2018-09-23T19:26:40.059Z,1.47
2018-09-23T19:29:08.589Z,2.43
2018-09-23T19:31:37.386Z,3.80
2018-09-23T19:34:06.345Z,6.40
2018-09-23T19:36:35.673Z,7.03
2018-09-23T19:39:05.631Z,5.60
2018-09-23T19:41:34.479Z,1.97
2018-09-23T19:44:03.212Z,3.97
2018-09-23T19:46:32.315Z,5.70
2018-09-23T19:49:00.871Z,3.03
2018-09-23T19:51:29.560Z,3.47
2018-09-23T19:53:57.996Z,1.67
2018-09-23T19:56:26.650Z,2.40
2018-09-23T19:58:55.872Z,2.47
2018-09-23T20:01:24.533Z,1.30
2018-09-23T20:03:53.497Z,2.13
2018-09-23T20:06:22.807Z,1.30
2018-09-23T20:08:51.977Z,1.60
2018-09-23T20:11:20.591Z,1.77
2018-09-23T20:13:49.065Z,2.10
2018-09-23T20:16:17.815Z,2.87
2018-09-23T20:18:46.744Z,2.47
2018-09-23T20:21:15.410Z,2.33
2018-09-23T20:23:44.109Z,2.47
2018-09-23T20:26:12.752Z,2.17
2018-09-23T20:28:41.412Z,0.90
2018-09-23T20:31:10.104Z,1.70
2018-09-23T20:33:39.420Z,2.57
2018-09-23T20:36:08.265Z,1.27
2018-09-23T20:38:36.838Z,2.17
2018-09-23T20:41:05.766Z,2.93
2018-09-23T20:43:34.247Z,2.10
2018-09-23T20:46:04.182Z,2.70
2018-09-23T20:48:32.674Z,1.93
2018-09-23T20:51:01.810Z,3.67
2018-09-23T20:53:30.610Z,1.97
2018-09-23T20:56:00.334Z,2.33
2018-09-23T20:58:29.363Z,1.73
2018-09-23T21:00:57.822Z,3.77
2018-09-23T21:03:27.714Z,2.93
2018-09-23T21:05:57.155Z,2.23
2018-09-23T21:08:26.556Z,2.60
2018-09-23T21:10:56.002Z,3.43
2018-09-23T21:13:25.238Z,1.40
2018-09-23T21:15:53.906Z,2.83
2018-09-23T21:18:22.493Z,1.27
2018-09-23T21:20:51.301Z,2.63
2018-09-23T21:23:21.678Z,2.40
2018-09-23T21:25:50.970Z,3.07
2018-09-23T21:28:20.005Z,2.53
2018-09-23T21:30:48.815Z,4.30
2018-09-23T21:33:17.465Z,1.00
2018-09-23T21:35:47.234Z,1.73
2018-09-23T21:38:16.747Z,1.13
2018-09-23T21:40:45.508Z,1.13
2018-09-23T21:43:14.241Z,1.93
2018-09-23T21:45:43.279Z,0.60
2018-09-23T21:48:11.924Z,0.50
2018-09-23T21:50:40.517Z,0.40
2018-09-23T21:53:09.178Z,1.53
2018-09-23T21:55:37.625Z,0.60
2018-09-23T21:58:06.406Z,0.30
2018-09-23T22:00:41.436Z,1.07
2018-09-23T22:03:11.210Z,0.50
2018-09-23T22:05:40.215Z,0.83
2018-09-23T22:08:08.972Z,1.80
2018-09-23T22:10:37.703Z,0.67
2018-09-23T22:13:06.555Z,2.30
2018-09-23T22:15:35.121Z,0.30
2018-09-23T22:18:03.651Z,0.30
2018-09-23T22:20:32.337Z,0.57
2018-09-23T22:23:00.966Z,0.73
2018-09-23T22:25:29.419Z,0.47
2018-09-23T22:27:57.853Z,0.40
2018-09-23T22:30:26.741Z,0.30
2018-09-23T22:32:55.176Z,0.40
2018-09-23T22:35:24.274Z,0.73
2018-09-23T22:37:52.651Z,0.87
2018-09-23T22:40:21.360Z,0.23
2018-09-23T22:42:50.506Z,0.77
2018-09-23T22:45:19.693Z,0.30
2018-09-23T22:47:48.180Z,0.50
2018-09-23T22:50:16.958Z,0.23
2018-09-23T22:52:45.604Z,1.33
2018-09-23T22:55:14.104Z,0.20
2018-09-23T22:57:43.309Z,0.27
2018-09-23T23:00:12.072Z,0.20
2018-09-23T23:02:40.715Z,0.20
2018-09-23T23:05:09.365Z,2.27
2018-09-23T23:07:37.803Z,0.23
2018-09-23T23:10:07.532Z,0.53
2018-09-23T23:12:36.372Z,0.27
2018-09-23T23:15:04.873Z,0.53
2018-09-23T23:17:34.230Z,0.10
2018-09-23T23:20:02.784Z,0.30
2018-09-23T23:22:31.297Z,0.20
2018-09-23T23:24:59.705Z,0.20
2018-09-23T23:27:28.260Z,0.27
2018-09-23T23:29:56.929Z,2.63
2018-09-23T23:32:25.557Z,0.10
2018-09-23T23:34:54.321Z,0.30
2018-09-23T23:37:22.768Z,0.37
2018-09-23T23:39:51.627Z,0.20
2018-09-23T23:42:20.008Z,1.53
2018-09-23T23:44:48.414Z,0.73
2018-09-23T23:47:17.695Z,0.67
2018-09-23T23:49:46.083Z,0.40
2018-09-23T23:52:14.511Z,0.20
2018-09-23T23:54:43.407Z,1.00
2018-09-23T23:57:12.428Z,2.73
2018-09-23T23:59:40.835Z,0.40
